sensor_id;sensor_type;location;lat;lon;timestamp;temperature;humidity
5461;DHT22;2753;49.196;8.286;2022-11-15T00:02:13;8.30;99.90
5461;DHT22;2753;49.196;8.286;2022-11-15T00:04:39;8.30;99.90
5461;DHT22;2753;49.196;8.286;2022-11-15T00:07:04;8.30;99.90
5461;DHT22;2753;49.196;8.286;2022-11-15T00:09:30;8.40;99.90
5461;DHT22;2753;49.196;8.286;2022-11-15T00:11:56;8.40;99.90
5461;DHT22;2753;49.196;8.286;2022-11-15T00:14:23;8.40;99.90
5461;DHT22;2753;49.196;8.286;2022-11-15T00:16:48;8.40;99.90
5461;DHT22;2753;49.196;8.286;2022-11-15T00:19:14;8.40;99.90
5461;DHT22;2753;49.196;8.286;2022-11-15T00:21:40;8.40;99.90
5461;DHT22;2753;49.196;8.286;2022-11-15T00:24:06;8.40;99.90
5461;DHT22;2753;49.196;8.286;2022-11-15T00:26:32;8.40;99.90
5461;DHT22;2753;49.196;8.286;2022-11-15T00:28:57;8.50;99.90
5461;DHT22;2753;49.196;8.286;2022-11-15T00:31:23;8.50;99.90
5461;DHT22;2753;49.196;8.286;2022-11-15T00:33:49;8.40;99.90
5461;DHT22;2753;49.196;8.286;2022-11-15T00:36:14;8.40;99.90
5461;DHT22;2753;49.196;8.286;2022-11-15T00:38:40;8.40;99.90
5461;DHT22;2753;49.196;8.286;2022-11-15T00:41:07;8.40;99.90
5461;DHT22;2753;49.196;8.286;2022-11-15T00:43:33;8.40;99.90
5461;DHT22;2753;49.196;8.286;2022-11-15T00:46:00;8.30;99.90
5461;DHT22;2753;49.196;8.286;2022-11-15T00:48:27;8.30;99.90
5461;DHT22;2753;49.196;8.286;2022-11-15T00:50:53;8.30;99.90
5461;DHT22;2753;49.196;8.286;2022-11-15T00:53:19;8.30;99.90
5461;DHT22;2753;49.196;8.286;2022-11-15T00:55:46;8.30;99.90
5461;DHT22;2753;49.196;8.286;2022-11-15T00:58:12;8.30;99.90
5461;DHT22;2753;49.196;8.286;2022-11-15T01:00:37;8.30;99.90
5461;DHT22;2753;49.196;8.286;2022-11-15T01:03:03;8.40;99.90
5461;DHT22;2753;49.196;8.286;2022-11-15T01:05:29;8.40;99.90
5461;DHT22;2753;49.196;8.286;2022-11-15T01:07:56;8.40;99.90
5461;DHT22;2753;49.196;8.286;2022-11-15T01:10:24;8.40;99.90
5461;DHT22;2753;49.196;8.286;2022-11-15T01:12:51;8.40;99.90
5461;DHT22;2753;49.196;8.286;2022-11-15T01:15:17;8.30;99.90
5461;DHT22;2753;49.196;8.286;2022-11-15T01:17:42;8.40;99.90
5461;DHT22;2753;49.196;8.286;2022-11-15T01:20:08;8.40;99.90
5461;DHT22;2753;49.196;8.286;2022-11-15T01:22:34;8.30;99.90
5461;DHT22;2753;49.196;8.286;2022-11-15T01:25:00;8.30;99.90
5461;DHT22;2753;49.196;8.286;2022-11-15T01:27:26;8.30;99.90
5461;DHT22;2753;49.196;8.286;2022-11-15T01:29:52;8.30;99.90
5461;DHT22;2753;49.196;8.286;2022-11-15T01:32:17;8.40;99.90
5461;DHT22;2753;49.196;8.286;2022-11-15T01:34:43;8.40;99.90
5461;DHT22;2753;49.196;8.286;2022-11-15T01:37:09;8.40;99.90
5461;DHT22;2753;49.196;8.286;2022-11-15T01:39:35;8.40;99.90
5461;DHT22;2753;49.196;8.286;2022-11-15T01:42:00;8.40;99.90
5461;DHT22;2753;49.196;8.286;2022-11-15T01:44:51;8.40;99.90
5461;DHT22;2753;49.196;8.286;2022-11-15T01:47:26;8.40;99.90
5461;DHT22;2753;49.196;8.286;2022-11-15T01:52:25;8.40;99.90
5461;DHT22;2753;49.196;8.286;2022-11-15T01:55:19;8.40;99.90
5461;DHT22;2753;49.196;8.286;2022-11-15T01:57:47;8.40;99.90
5461;DHT22;2753;49.196;8.286;2022-11-15T02:00:15;8.40;99.90
5461;DHT22;2753;49.196;8.286;2022-11-15T02:02:41;8.40;99.90
5461;DHT22;2753;49.196;8.286;2022-11-15T02:05:07;8.40;99.90
5461;DHT22;2753;49.196;8.286;2022-11-15T02:07:35;8.40;99.90
5461;DHT22;2753;49.196;8.286;2022-11-15T02:10:10;8.40;99.90
5461;DHT22;2753;49.196;8.286;2022-11-15T02:12:37;8.40;99.90
5461;DHT22;2753;49.196;8.286;2022-11-15T02:15:05;8.40;99.90
5461;DHT22;2753;49.196;8.286;2022-11-15T02:42:02;8.40;99.90
5461;DHT22;2753;49.196;8.286;2022-11-15T02:44:38;8.40;99.90
5461;DHT22;2753;49.196;8.286;2022-11-15T02:47:07;8.40;99.90
5461;DHT22;2753;49.196;8.286;2022-11-15T02:49:50;8.40;99.90
5461;DHT22;2753;49.196;8.286;2022-11-15T02:52:17;8.40;99.90
5461;DHT22;2753;49.196;8.286;2022-11-15T02:54:52;8.50;99.90
5461;DHT22;2753;49.196;8.286;2022-11-15T02:57:39;8.50;99.90
5461;DHT22;2753;49.196;8.286;2022-11-15T03:00:14;8.50;99.90
5461;DHT22;2753;49.196;8.286;2022-11-15T03:08:22;8.40;99.90
5461;DHT22;2753;49.196;8.286;2022-11-15T03:16:12;8.40;99.90
5461;DHT22;2753;49.196;8.286;2022-11-15T03:18:49;8.40;99.90
5461;DHT22;2753;49.196;8.286;2022-11-15T03:21:19;8.40;99.90
5461;DHT22;2753;49.196;8.286;2022-11-15T03:23:48;8.50;99.90
5461;DHT22;2753;49.196;8.286;2022-11-15T03:26:16;8.50;99.90
5461;DHT22;2753;49.196;8.286;2022-11-15T03:28:45;8.50;99.90
5461;DHT22;2753;49.196;8.286;2022-11-15T03:31:15;8.50;99.90
5461;DHT22;2753;49.196;8.286;2022-11-15T03:34:03;8.50;99.90
5461;DHT22;2753;49.196;8.286;2022-11-15T03:36:33;8.50;99.90
5461;DHT22;2753;49.196;8.286;2022-11-15T03:39:02;8.50;99.90
5461;DHT22;2753;49.196;8.286;2022-11-15T03:41:43;8.50;99.90
5461;DHT22;2753;49.196;8.286;2022-11-15T03:49:52;8.50;99.90
5461;DHT22;2753;49.196;8.286;2022-11-15T03:52:19;8.50;99.90
5461;DHT22;2753;49.196;8.286;2022-11-15T03:54:56;8.50;99.90
5461;DHT22;2753;49.196;8.286;2022-11-15T03:57:22;8.50;99.90
5461;DHT22;2753;49.196;8.286;2022-11-15T03:59:48;8.50;99.90
5461;DHT22;2753;49.196;8.286;2022-11-15T04:02:14;8.40;99.90
5461;DHT22;2753;49.196;8.286;2022-11-15T04:04:40;8.50;99.90
5461;DHT22;2753;49.196;8.286;2022-11-15T04:07:05;8.50;99.90
5461;DHT22;2753;49.196;8.286;2022-11-15T04:09:31;8.50;99.90
5461;DHT22;2753;49.196;8.286;2022-11-15T04:11:57;8.60;99.90
5461;DHT22;2753;49.196;8.286;2022-11-15T04:14:22;8.60;99.90
5461;DHT22;2753;49.196;8.286;2022-11-15T04:16:48;8.60;99.90
5461;DHT22;2753;49.196;8.286;2022-11-15T04:19:14;8.70;99.90
5461;DHT22;2753;49.196;8.286;2022-11-15T04:21:58;8.70;99.90
5461;DHT22;2753;49.196;8.286;2022-11-15T04:24:42;8.70;99.90
5461;DHT22;2753;49.196;8.286;2022-11-15T04:27:08;8.70;99.90
5461;DHT22;2753;49.196;8.286;2022-11-15T04:29:33;8.70;99.90
5461;DHT22;2753;49.196;8.286;2022-11-15T04:32:00;8.70;99.90
5461;DHT22;2753;49.196;8.286;2022-11-15T04:34:25;8.60;99.90
5461;DHT22;2753;49.196;8.286;2022-11-15T04:36:51;8.60;99.90
5461;DHT22;2753;49.196;8.286;2022-11-15T04:39:35;8.60;99.90
5461;DHT22;2753;49.196;8.286;2022-11-15T04:42:01;8.60;99.90
5461;DHT22;2753;49.196;8.286;2022-11-15T04:44:26;8.60;99.90
5461;DHT22;2753;49.196;8.286;2022-11-15T04:46:52;8.60;99.90
5461;DHT22;2753;49.196;8.286;2022-11-15T04:49:18;8.60;99.90
5461;DHT22;2753;49.196;8.286;2022-11-15T04:51:44;8.60;99.90
5461;DHT22;2753;49.196;8.286;2022-11-15T04:54:10;8.60;99.90
5461;DHT22;2753;49.196;8.286;2022-11-15T04:56:35;8.60;99.90
5461;DHT22;2753;49.196;8.286;2022-11-15T04:59:01;8.60;99.90
5461;DHT22;2753;49.196;8.286;2022-11-15T05:01:27;8.60;99.90
5461;DHT22;2753;49.196;8.286;2022-11-15T05:03:52;8.60;99.90
5461;DHT22;2753;49.196;8.286;2022-11-15T05:06:36;8.60;99.90
5461;DHT22;2753;49.196;8.286;2022-11-15T05:09:02;8.60;99.90
5461;DHT22;2753;49.196;8.286;2022-11-15T05:11:28;8.60;99.90
5461;DHT22;2753;49.196;8.286;2022-11-15T05:13:54;8.50;99.90
5461;DHT22;2753;49.196;8.286;2022-11-15T05:16:20;8.50;99.90
5461;DHT22;2753;49.196;8.286;2022-11-15T05:18:45;8.60;99.90
5461;DHT22;2753;49.196;8.286;2022-11-15T05:21:13;8.60;99.90
5461;DHT22;2753;49.196;8.286;2022-11-15T05:23:40;8.60;99.90
5461;DHT22;2753;49.196;8.286;2022-11-15T05:26:06;8.60;99.90
5461;DHT22;2753;49.196;8.286;2022-11-15T05:28:33;8.60;99.90
5461;DHT22;2753;49.196;8.286;2022-11-15T05:33:28;8.60;99.90
5461;DHT22;2753;49.196;8.286;2022-11-15T05:38:49;8.60;99.90
5461;DHT22;2753;49.196;8.286;2022-11-15T05:41:18;8.60;99.90
5461;DHT22;2753;49.196;8.286;2022-11-15T05:43:46;8.60;99.90
5461;DHT22;2753;49.196;8.286;2022-11-15T05:46:13;8.60;99.90
5461;DHT22;2753;49.196;8.286;2022-11-15T05:48:40;8.60;99.90
5461;DHT22;2753;49.196;8.286;2022-11-15T05:51:08;8.60;99.90
5461;DHT22;2753;49.196;8.286;2022-11-15T05:53:35;8.60;99.90
5461;DHT22;2753;49.196;8.286;2022-11-15T05:56:03;8.60;99.90
5461;DHT22;2753;49.196;8.286;2022-11-15T05:58:31;8.60;99.90
5461;DHT22;2753;49.196;8.286;2022-11-15T06:00:57;8.60;99.90
5461;DHT22;2753;49.196;8.286;2022-11-15T06:03:24;8.60;99.90
5461;DHT22;2753;49.196;8.286;2022-11-15T06:05:49;8.60;99.90
5461;DHT22;2753;49.196;8.286;2022-11-15T06:08:15;8.60;99.90
5461;DHT22;2753;49.196;8.286;2022-11-15T06:10:41;8.60;99.90
5461;DHT22;2753;49.196;8.286;2022-11-15T06:13:06;8.60;99.90
5461;DHT22;2753;49.196;8.286;2022-11-15T06:15:33;8.70;99.90
5461;DHT22;2753;49.196;8.286;2022-11-15T06:18:00;8.60;99.90
5461;DHT22;2753;49.196;8.286;2022-11-15T06:20:27;8.60;99.90
5461;DHT22;2753;49.196;8.286;2022-11-15T06:23:01;8.60;99.90
5461;DHT22;2753;49.196;8.286;2022-11-15T06:25:27;8.60;99.90
5461;DHT22;2753;49.196;8.286;2022-11-15T06:27:54;8.60;99.90
5461;DHT22;2753;49.196;8.286;2022-11-15T06:30:21;8.60;99.90
5461;DHT22;2753;49.196;8.286;2022-11-15T06:32:47;8.60;99.90
5461;DHT22;2753;49.196;8.286;2022-11-15T06:35:13;8.60;99.90
5461;DHT22;2753;49.196;8.286;2022-11-15T06:37:40;8.60;99.90
5461;DHT22;2753;49.196;8.286;2022-11-15T06:40:07;8.60;99.90
5461;DHT22;2753;49.196;8.286;2022-11-15T06:42:33;8.60;99.90
5461;DHT22;2753;49.196;8.286;2022-11-15T06:44:59;8.60;99.90
5461;DHT22;2753;49.196;8.286;2022-11-15T06:47:25;8.60;99.90
5461;DHT22;2753;49.196;8.286;2022-11-15T06:49:50;8.60;99.90
5461;DHT22;2753;49.196;8.286;2022-11-15T06:52:16;8.60;99.90
5461;DHT22;2753;49.196;8.286;2022-11-15T06:54:44;8.60;99.90
5461;DHT22;2753;49.196;8.286;2022-11-15T06:57:10;8.60;99.90
5461;DHT22;2753;49.196;8.286;2022-11-15T06:59:36;8.60;99.90
5461;DHT22;2753;49.196;8.286;2022-11-15T07:02:02;8.60;99.90
5461;DHT22;2753;49.196;8.286;2022-11-15T07:04:28;8.60;99.90
5461;DHT22;2753;49.196;8.286;2022-11-15T07:06:54;8.60;99.90
5461;DHT22;2753;49.196;8.286;2022-11-15T07:09:19;8.60;99.90
5461;DHT22;2753;49.196;8.286;2022-11-15T07:11:45;8.60;99.90
5461;DHT22;2753;49.196;8.286;2022-11-15T07:14:11;8.60;99.90
5461;DHT22;2753;49.196;8.286;2022-11-15T07:16:37;8.60;99.90
5461;DHT22;2753;49.196;8.286;2022-11-15T07:19:03;8.60;99.90
5461;DHT22;2753;49.196;8.286;2022-11-15T07:21:29;8.60;99.90
5461;DHT22;2753;49.196;8.286;2022-11-15T07:23:55;8.60;99.90
5461;DHT22;2753;49.196;8.286;2022-11-15T07:26:21;8.60;99.90
5461;DHT22;2753;49.196;8.286;2022-11-15T07:28:50;8.60;99.90
5461;DHT22;2753;49.196;8.286;2022-11-15T07:31:15;8.60;99.90
5461;DHT22;2753;49.196;8.286;2022-11-15T07:33:41;8.60;99.90
5461;DHT22;2753;49.196;8.286;2022-11-15T07:36:08;8.60;99.90
5461;DHT22;2753;49.196;8.286;2022-11-15T07:38:34;8.60;99.90
5461;DHT22;2753;49.196;8.286;2022-11-15T07:41:02;8.70;99.90
5461;DHT22;2753;49.196;8.286;2022-11-15T07:43:29;8.70;99.90
5461;DHT22;2753;49.196;8.286;2022-11-15T07:45:55;8.70;99.90
5461;DHT22;2753;49.196;8.286;2022-11-15T07:48:22;8.70;99.90
5461;DHT22;2753;49.196;8.286;2022-11-15T07:50:48;8.70;99.90
5461;DHT22;2753;49.196;8.286;2022-11-15T07:53:14;8.70;99.90
5461;DHT22;2753;49.196;8.286;2022-11-15T07:55:40;8.70;99.90
5461;DHT22;2753;49.196;8.286;2022-11-15T07:58:11;8.70;99.90
5461;DHT22;2753;49.196;8.286;2022-11-15T08:00:37;8.70;99.90
5461;DHT22;2753;49.196;8.286;2022-11-15T08:03:10;8.70;99.90
5461;DHT22;2753;49.196;8.286;2022-11-15T08:05:38;8.70;99.90
5461;DHT22;2753;49.196;8.286;2022-11-15T08:08:04;8.80;99.90
5461;DHT22;2753;49.196;8.286;2022-11-15T08:10:30;8.80;99.90
5461;DHT22;2753;49.196;8.286;2022-11-15T08:13:01;8.80;99.90
5461;DHT22;2753;49.196;8.286;2022-11-15T08:15:28;8.80;99.90
5461;DHT22;2753;49.196;8.286;2022-11-15T08:17:58;8.80;99.90
5461;DHT22;2753;49.196;8.286;2022-11-15T08:20:25;8.80;99.90
5461;DHT22;2753;49.196;8.286;2022-11-15T08:22:51;8.90;99.90
5461;DHT22;2753;49.196;8.286;2022-11-15T08:25:17;8.90;99.90
5461;DHT22;2753;49.196;8.286;2022-11-15T08:27:43;9.00;99.90
5461;DHT22;2753;49.196;8.286;2022-11-15T08:30:10;8.90;99.90
5461;DHT22;2753;49.196;8.286;2022-11-15T08:32:36;8.90;99.90
5461;DHT22;2753;49.196;8.286;2022-11-15T08:35:03;8.90;99.90
5461;DHT22;2753;49.196;8.286;2022-11-15T08:37:29;9.00;99.90
5461;DHT22;2753;49.196;8.286;2022-11-15T08:39:55;9.10;99.90
5461;DHT22;2753;49.196;8.286;2022-11-15T08:42:20;9.10;99.90
5461;DHT22;2753;49.196;8.286;2022-11-15T08:44:46;9.10;99.90
5461;DHT22;2753;49.196;8.286;2022-11-15T08:47:12;9.10;99.90
5461;DHT22;2753;49.196;8.286;2022-11-15T08:49:39;9.10;99.90
5461;DHT22;2753;49.196;8.286;2022-11-15T08:52:05;9.10;99.90
5461;DHT22;2753;49.196;8.286;2022-11-15T08:54:30;9.10;99.90
5461;DHT22;2753;49.196;8.286;2022-11-15T08:56:57;9.20;99.90
5461;DHT22;2753;49.196;8.286;2022-11-15T08:59:22;9.20;99.90
5461;DHT22;2753;49.196;8.286;2022-11-15T09:01:48;9.30;99.90
5461;DHT22;2753;49.196;8.286;2022-11-15T09:04:14;9.30;99.90
5461;DHT22;2753;49.196;8.286;2022-11-15T09:06:39;9.40;99.90
5461;DHT22;2753;49.196;8.286;2022-11-15T09:09:05;9.40;99.90
5461;DHT22;2753;49.196;8.286;2022-11-15T09:11:31;9.40;99.90
5461;DHT22;2753;49.196;8.286;2022-11-15T09:13:57;9.40;99.90
5461;DHT22;2753;49.196;8.286;2022-11-15T09:16:23;9.50;99.90
5461;DHT22;2753;49.196;8.286;2022-11-15T09:18:48;9.50;99.90
5461;DHT22;2753;49.196;8.286;2022-11-15T09:21:14;9.40;99.90
5461;DHT22;2753;49.196;8.286;2022-11-15T09:23:40;9.40;99.90
5461;DHT22;2753;49.196;8.286;2022-11-15T09:26:06;9.40;99.90
5461;DHT22;2753;49.196;8.286;2022-11-15T09:28:32;9.40;99.90
5461;DHT22;2753;49.196;8.286;2022-11-15T09:31:03;9.50;99.90
5461;DHT22;2753;49.196;8.286;2022-11-15T09:33:30;9.50;99.90
5461;DHT22;2753;49.196;8.286;2022-11-15T09:36:00;9.50;99.90
5461;DHT22;2753;49.196;8.286;2022-11-15T09:38:27;9.50;99.90
5461;DHT22;2753;49.196;8.286;2022-11-15T09:41:23;9.60;99.90
5461;DHT22;2753;49.196;8.286;2022-11-15T09:44:16;9.50;99.90
5461;DHT22;2753;49.196;8.286;2022-11-15T09:49:21;9.70;99.90
5461;DHT22;2753;49.196;8.286;2022-11-15T09:51:50;9.70;99.90
5461;DHT22;2753;49.196;8.286;2022-11-15T09:54:20;9.80;99.90
5461;DHT22;2753;49.196;8.286;2022-11-15T09:56:47;9.80;99.90
5461;DHT22;2753;49.196;8.286;2022-11-15T10:05:11;9.90;99.90
5461;DHT22;2753;49.196;8.286;2022-11-15T10:12:52;9.90;99.90
5461;DHT22;2753;49.196;8.286;2022-11-15T10:15:18;9.90;99.90
5461;DHT22;2753;49.196;8.286;2022-11-15T10:18:08;9.90;99.90
5461;DHT22;2753;49.196;8.286;2022-11-15T10:20:50;10.00;99.90
5461;DHT22;2753;49.196;8.286;2022-11-15T10:23:20;10.00;99.90
5461;DHT22;2753;49.196;8.286;2022-11-15T10:25:47;9.90;99.90
5461;DHT22;2753;49.196;8.286;2022-11-15T10:30:52;10.00;99.90
5461;DHT22;2753;49.196;8.286;2022-11-15T10:33:34;10.10;99.90
5461;DHT22;2753;49.196;8.286;2022-11-15T10:46:28;10.10;99.90
5461;DHT22;2753;49.196;8.286;2022-11-15T10:49:27;10.20;99.90
5461;DHT22;2753;49.196;8.286;2022-11-15T10:54:30;10.30;99.90
5461;DHT22;2753;49.196;8.286;2022-11-15T10:56:59;10.40;99.90
5461;DHT22;2753;49.196;8.286;2022-11-15T10:59:32;10.40;99.90
5461;DHT22;2753;49.196;8.286;2022-11-15T11:02:00;10.50;99.90
5461;DHT22;2753;49.196;8.286;2022-11-15T11:04:26;10.50;99.90
5461;DHT22;2753;49.196;8.286;2022-11-15T11:06:53;10.50;99.90
5461;DHT22;2753;49.196;8.286;2022-11-15T11:09:30;10.60;99.90
5461;DHT22;2753;49.196;8.286;2022-11-15T11:11:57;10.60;99.90
5461;DHT22;2753;49.196;8.286;2022-11-15T11:17:11;10.70;99.90
5461;DHT22;2753;49.196;8.286;2022-11-15T11:23:03;10.80;99.90
5461;DHT22;2753;49.196;8.286;2022-11-15T11:25:37;10.90;99.90
5461;DHT22;2753;49.196;8.286;2022-11-15T11:42:06;11.10;99.90
5461;DHT22;2753;49.196;8.286;2022-11-15T11:47:47;11.10;99.90
5461;DHT22;2753;49.196;8.286;2022-11-15T11:53:25;11.10;99.90
5461;DHT22;2753;49.196;8.286;2022-11-15T11:55:54;11.10;99.90
5461;DHT22;2753;49.196;8.286;2022-11-15T11:58:34;11.20;99.90
5461;DHT22;2753;49.196;8.286;2022-11-15T12:03:49;11.10;99.90
5461;DHT22;2753;49.196;8.286;2022-11-15T12:06:33;11.10;99.90
5461;DHT22;2753;49.196;8.286;2022-11-15T12:09:12;11.10;99.90
5461;DHT22;2753;49.196;8.286;2022-11-15T12:16:53;11.30;99.90
5461;DHT22;2753;49.196;8.286;2022-11-15T12:19:18;11.30;99.90
5461;DHT22;2753;49.196;8.286;2022-11-15T12:26:56;11.30;99.90
5461;DHT22;2753;49.196;8.286;2022-11-15T12:29:33;11.30;99.90
5461;DHT22;2753;49.196;8.286;2022-11-15T12:32:01;11.30;99.90
5461;DHT22;2753;49.196;8.286;2022-11-15T12:36:55;11.50;99.90
5461;DHT22;2753;49.196;8.286;2022-11-15T12:47:25;11.50;99.90
5461;DHT22;2753;49.196;8.286;2022-11-15T12:49:52;11.60;99.90
5461;DHT22;2753;49.196;8.286;2022-11-15T12:52:18;11.60;99.90
5461;DHT22;2753;49.196;8.286;2022-11-15T12:54:53;11.60;99.90
5461;DHT22;2753;49.196;8.286;2022-11-15T12:59:53;11.60;99.90
5461;DHT22;2753;49.196;8.286;2022-11-15T13:02:35;11.60;99.90
5461;DHT22;2753;49.196;8.286;2022-11-15T13:22:52;11.70;99.90
5461;DHT22;2753;49.196;8.286;2022-11-15T13:30:54;11.70;99.90
5461;DHT22;2753;49.196;8.286;2022-11-15T13:33:34;11.70;99.90
5461;DHT22;2753;49.196;8.286;2022-11-15T13:36:09;11.80;99.90
5461;DHT22;2753;49.196;8.286;2022-11-15T13:38:39;11.80;99.90
5461;DHT22;2753;49.196;8.286;2022-11-15T13:41:20;11.80;99.90
5461;DHT22;2753;49.196;8.286;2022-11-15T13:43:47;11.70;99.90
5461;DHT22;2753;49.196;8.286;2022-11-15T13:48:43;11.70;99.90
5461;DHT22;2753;49.196;8.286;2022-11-15T13:54:01;11.70;99.90
5461;DHT22;2753;49.196;8.286;2022-11-15T13:56:28;11.80;99.90
5461;DHT22;2753;49.196;8.286;2022-11-15T13:58:54;11.80;99.90
5461;DHT22;2753;49.196;8.286;2022-11-15T14:01:21;11.80;99.90
5461;DHT22;2753;49.196;8.286;2022-11-15T14:03:56;11.80;99.90
5461;DHT22;2753;49.196;8.286;2022-11-15T14:06:25;11.80;99.90
5461;DHT22;2753;49.196;8.286;2022-11-15T14:09:03;11.80;99.90
5461;DHT22;2753;49.196;8.286;2022-11-15T14:11:29;11.70;99.90
5461;DHT22;2753;49.196;8.286;2022-11-15T14:16:45;11.70;99.90
5461;DHT22;2753;49.196;8.286;2022-11-15T14:24:41;11.80;99.90
5461;DHT22;2753;49.196;8.286;2022-11-15T14:29:43;11.70;99.90
5461;DHT22;2753;49.196;8.286;2022-11-15T14:32:14;11.70;99.90
5461;DHT22;2753;49.196;8.286;2022-11-15T14:34:40;11.80;99.90
5461;DHT22;2753;49.196;8.286;2022-11-15T14:37:21;11.70;99.90
5461;DHT22;2753;49.196;8.286;2022-11-15T14:39:48;11.70;99.90
5461;DHT22;2753;49.196;8.286;2022-11-15T14:42:13;11.70;99.90
5461;DHT22;2753;49.196;8.286;2022-11-15T14:44:39;11.70;99.90
5461;DHT22;2753;49.196;8.286;2022-11-15T14:47:05;11.70;99.90
5461;DHT22;2753;49.196;8.286;2022-11-15T14:49:30;11.70;99.90
5461;DHT22;2753;49.196;8.286;2022-11-15T14:51:56;11.60;99.90
5461;DHT22;2753;49.196;8.286;2022-11-15T14:54:22;11.60;99.90
5461;DHT22;2753;49.196;8.286;2022-11-15T14:56:47;11.60;99.90
5461;DHT22;2753;49.196;8.286;2022-11-15T14:59:13;11.60;99.90
5461;DHT22;2753;49.196;8.286;2022-11-15T15:01:39;11.50;99.90
5461;DHT22;2753;49.196;8.286;2022-11-15T15:04:05;11.50;99.90
5461;DHT22;2753;49.196;8.286;2022-11-15T15:06:31;11.50;99.90
5461;DHT22;2753;49.196;8.286;2022-11-15T15:08:57;11.50;99.90
5461;DHT22;2753;49.196;8.286;2022-11-15T15:11:24;11.60;99.90
5461;DHT22;2753;49.196;8.286;2022-11-15T15:13:51;11.50;99.90
5461;DHT22;2753;49.196;8.286;2022-11-15T15:16:18;11.50;99.90
5461;DHT22;2753;49.196;8.286;2022-11-15T15:18:44;11.50;99.90
5461;DHT22;2753;49.196;8.286;2022-11-15T15:21:28;11.50;99.90
5461;DHT22;2753;49.196;8.286;2022-11-15T15:23:56;11.50;99.90
5461;DHT22;2753;49.196;8.286;2022-11-15T15:26:23;11.50;99.90
5461;DHT22;2753;49.196;8.286;2022-11-15T15:28:49;11.50;99.90
5461;DHT22;2753;49.196;8.286;2022-11-15T15:31:16;11.50;99.90
5461;DHT22;2753;49.196;8.286;2022-11-15T15:33:42;11.50;99.90
5461;DHT22;2753;49.196;8.286;2022-11-15T15:36:12;11.50;99.90
5461;DHT22;2753;49.196;8.286;2022-11-15T15:38:43;11.50;99.90
5461;DHT22;2753;49.196;8.286;2022-11-15T15:51:33;11.40;99.90
5461;DHT22;2753;49.196;8.286;2022-11-15T15:54:03;11.40;99.90
5461;DHT22;2753;49.196;8.286;2022-11-15T15:56:31;11.40;99.90
5461;DHT22;2753;49.196;8.286;2022-11-15T16:02:35;11.30;99.90
5461;DHT22;2753;49.196;8.286;2022-11-15T16:05:05;11.40;99.90
5461;DHT22;2753;49.196;8.286;2022-11-15T16:07:51;11.30;99.90
5461;DHT22;2753;49.196;8.286;2022-11-15T16:10:28;11.30;99.90
5461;DHT22;2753;49.196;8.286;2022-11-15T16:12:57;11.30;99.90
5461;DHT22;2753;49.196;8.286;2022-11-15T16:15:29;11.30;99.90
5461;DHT22;2753;49.196;8.286;2022-11-15T16:17:57;11.30;99.90
5461;DHT22;2753;49.196;8.286;2022-11-15T16:23:02;11.30;99.90
5461;DHT22;2753;49.196;8.286;2022-11-15T16:25:28;11.30;99.90
5461;DHT22;2753;49.196;8.286;2022-11-15T16:27:54;11.30;99.90
5461;DHT22;2753;49.196;8.286;2022-11-15T16:30:21;11.30;99.90
5461;DHT22;2753;49.196;8.286;2022-11-15T16:32:48;11.30;99.90
5461;DHT22;2753;49.196;8.286;2022-11-15T16:35:15;11.30;99.90
5461;DHT22;2753;49.196;8.286;2022-11-15T16:37:41;11.30;99.90
5461;DHT22;2753;49.196;8.286;2022-11-15T16:40:31;11.30;99.90
5461;DHT22;2753;49.196;8.286;2022-11-15T16:42:57;11.20;99.90
5461;DHT22;2753;49.196;8.286;2022-11-15T16:45:24;11.30;99.90
5461;DHT22;2753;49.196;8.286;2022-11-15T16:47:50;11.30;99.90
5461;DHT22;2753;49.196;8.286;2022-11-15T16:50:25;11.20;99.90
5461;DHT22;2753;49.196;8.286;2022-11-15T16:52:56;11.20;99.90
5461;DHT22;2753;49.196;8.286;2022-11-15T16:55:23;11.20;99.90
5461;DHT22;2753;49.196;8.286;2022-11-15T16:57:49;11.20;99.90
5461;DHT22;2753;49.196;8.286;2022-11-15T17:00:17;11.20;99.90
5461;DHT22;2753;49.196;8.286;2022-11-15T17:02:45;11.20;99.90
5461;DHT22;2753;49.196;8.286;2022-11-15T17:05:12;11.20;99.90
5461;DHT22;2753;49.196;8.286;2022-11-15T17:07:39;11.30;99.90
5461;DHT22;2753;49.196;8.286;2022-11-15T17:10:06;11.30;99.90
5461;DHT22;2753;49.196;8.286;2022-11-15T17:12:33;11.20;99.90
5461;DHT22;2753;49.196;8.286;2022-11-15T17:15:00;11.20;99.90
5461;DHT22;2753;49.196;8.286;2022-11-15T17:17:25;11.20;99.90
5461;DHT22;2753;49.196;8.286;2022-11-15T17:19:52;11.10;99.90
5461;DHT22;2753;49.196;8.286;2022-11-15T17:22:19;11.10;99.90
5461;DHT22;2753;49.196;8.286;2022-11-15T17:24:48;11.20;99.90
5461;DHT22;2753;49.196;8.286;2022-11-15T17:27:14;11.10;99.90
5461;DHT22;2753;49.196;8.286;2022-11-15T17:29:41;11.10;99.90
5461;DHT22;2753;49.196;8.286;2022-11-15T17:32:07;11.10;99.90
5461;DHT22;2753;49.196;8.286;2022-11-15T17:34:33;11.10;99.90
5461;DHT22;2753;49.196;8.286;2022-11-15T17:36:59;11.10;99.90
5461;DHT22;2753;49.196;8.286;2022-11-15T17:39:25;11.10;99.90
5461;DHT22;2753;49.196;8.286;2022-11-15T17:41:51;11.10;99.90
5461;DHT22;2753;49.196;8.286;2022-11-15T17:44:16;11.10;99.90
5461;DHT22;2753;49.196;8.286;2022-11-15T17:46:43;11.10;99.90
5461;DHT22;2753;49.196;8.286;2022-11-15T17:49:09;11.10;99.90
5461;DHT22;2753;49.196;8.286;2022-11-15T17:51:35;11.10;99.90
5461;DHT22;2753;49.196;8.286;2022-11-15T17:54:05;11.10;99.90
5461;DHT22;2753;49.196;8.286;2022-11-15T17:56:31;11.10;99.90
5461;DHT22;2753;49.196;8.286;2022-11-15T17:58:58;11.10;99.90
5461;DHT22;2753;49.196;8.286;2022-11-15T18:01:28;11.10;99.90
5461;DHT22;2753;49.196;8.286;2022-11-15T18:03:55;11.10;99.90
5461;DHT22;2753;49.196;8.286;2022-11-15T18:06:22;11.10;99.90
5461;DHT22;2753;49.196;8.286;2022-11-15T18:08:50;11.10;99.90
5461;DHT22;2753;49.196;8.286;2022-11-15T18:11:24;11.10;99.90
5461;DHT22;2753;49.196;8.286;2022-11-15T18:13:53;11.10;99.90
5461;DHT22;2753;49.196;8.286;2022-11-15T18:16:21;11.10;99.90
5461;DHT22;2753;49.196;8.286;2022-11-15T18:18:49;11.10;99.90
5461;DHT22;2753;49.196;8.286;2022-11-15T18:21:17;11.10;99.90
5461;DHT22;2753;49.196;8.286;2022-11-15T18:23:43;11.10;99.90
5461;DHT22;2753;49.196;8.286;2022-11-15T18:26:20;11.00;99.90
5461;DHT22;2753;49.196;8.286;2022-11-15T18:28:53;11.10;99.90
5461;DHT22;2753;49.196;8.286;2022-11-15T18:31:27;11.00;99.90
5461;DHT22;2753;49.196;8.286;2022-11-15T18:33:54;11.00;99.90
5461;DHT22;2753;49.196;8.286;2022-11-15T18:36:23;11.00;99.90
5461;DHT22;2753;49.196;8.286;2022-11-15T18:39:00;11.00;99.90
5461;DHT22;2753;49.196;8.286;2022-11-15T18:41:30;11.00;99.90
5461;DHT22;2753;49.196;8.286;2022-11-15T18:43:57;11.00;99.90
5461;DHT22;2753;49.196;8.286;2022-11-15T18:46:25;11.00;99.90
5461;DHT22;2753;49.196;8.286;2022-11-15T18:48:52;11.00;99.90
5461;DHT22;2753;49.196;8.286;2022-11-15T18:51:21;11.00;99.90
5461;DHT22;2753;49.196;8.286;2022-11-15T18:53:48;11.00;99.90
5461;DHT22;2753;49.196;8.286;2022-11-15T18:56:18;11.00;99.90
5461;DHT22;2753;49.196;8.286;2022-11-15T18:58:46;11.00;99.90
5461;DHT22;2753;49.196;8.286;2022-11-15T19:04:36;11.00;99.90
5461;DHT22;2753;49.196;8.286;2022-11-15T19:10:25;11.00;99.90
5461;DHT22;2753;49.196;8.286;2022-11-15T19:12:50;11.00;99.90
5461;DHT22;2753;49.196;8.286;2022-11-15T19:15:16;11.00;99.90
5461;DHT22;2753;49.196;8.286;2022-11-15T19:17:42;11.00;99.90
5461;DHT22;2753;49.196;8.286;2022-11-15T19:20:08;11.00;99.90
5461;DHT22;2753;49.196;8.286;2022-11-15T19:22:34;11.00;99.90
5461;DHT22;2753;49.196;8.286;2022-11-15T19:25:00;11.00;99.90
5461;DHT22;2753;49.196;8.286;2022-11-15T19:27:29;11.00;99.90
5461;DHT22;2753;49.196;8.286;2022-11-15T19:29:54;11.00;99.90
5461;DHT22;2753;49.196;8.286;2022-11-15T19:32:20;11.00;99.90
5461;DHT22;2753;49.196;8.286;2022-11-15T19:34:46;10.90;99.90